Time;durP1;ratioP1;P1;durP2;ratioP2;P2;SDS_P1;SDS_P2;PMS_P1;PMS_P2;Temp;Humidity;BMP_temperature;BMP_pressure;BME280_temperature;BME280_humidity;BME280_pressure;Samples;Min_cycle;Max_cycle;Signal;HPM_P1;HPM_P2
2021/01/19 00:01:58;;;;;;;18.83;8.93;;;6.10;93.60;;;;;;4969252;28;20073;-94
2021/01/19 00:04:23;;;;;;;22.95;8.60;;;6.10;93.50;;;;;;4974872;28;20035;-93
2021/01/19 00:06:49;;;;;;;23.20;7.15;;;6.10;93.50;;;;;;4977321;28;20041;-94
2021/01/19 00:09:14;;;;;;;21.42;7.10;;;6.10;93.50;;;;;;4977389;28;20026;-94
2021/01/19 00:11:40;;;;;;;14.05;6.10;;;6.10;93.50;;;;;;4973547;28;20788;-92
2021/01/19 00:14:05;;;;;;;14.10;6.05;;;6.10;93.50;;;;;;4977254;28;20461;-95
2021/01/19 00:16:31;;;;;;;11.65;6.00;;;6.10;93.50;;;;;;4983342;28;20090;-94
2021/01/19 00:18:56;;;;;;;13.52;5.68;;;6.00;93.40;;;;;;4976605;28;20023;-94
2021/01/19 00:21:22;;;;;;;11.25;6.25;;;6.00;93.40;;;;;;4975872;28;20042;-94
2021/01/19 00:23:47;;;;;;;14.90;5.80;;;6.00;93.40;;;;;;4977304;28;20026;-94
2021/01/19 00:26:13;;;;;;;20.25;7.18;;;5.90;93.40;;;;;;4972646;28;20037;-94
2021/01/19 00:28:39;;;;;;;16.90;6.97;;;5.90;93.40;;;;;;4974130;28;20030;-93
2021/01/19 00:31:05;;;;;;;12.65;5.50;;;5.90;93.50;;;;;;4975912;28;20090;-93
2021/01/19 00:33:30;;;;;;;13.82;4.75;;;5.90;93.40;;;;;;4976731;28;20415;-95
2021/01/19 00:35:56;;;;;;;16.30;5.28;;;5.90;93.40;;;;;;4975816;28;20025;-94
2021/01/19 00:38:21;;;;;;;17.95;5.22;;;5.90;93.40;;;;;;4975684;28;20066;-94
2021/01/19 00:40:47;;;;;;;12.95;4.18;;;5.90;93.40;;;;;;4976419;28;20015;-94
2021/01/19 00:43:12;;;;;;;12.30;3.95;;;5.90;93.40;;;;;;4992819;28;20031;-95
2021/01/19 00:45:38;;;;;;;16.17;3.90;;;5.90;93.30;;;;;;4972165;28;20019;-94
2021/01/19 00:48:04;;;;;;;9.43;3.30;;;5.80;93.30;;;;;;4982797;28;20031;-95
2021/01/19 00:50:30;;;;;;;14.75;4.10;;;5.90;93.20;;;;;;4973022;28;20023;-94
2021/01/19 00:52:55;;;;;;;12.70;3.28;;;5.90;93.20;;;;;;4975209;28;20043;-95
2021/01/19 00:55:21;;;;;;;16.75;4.40;;;5.90;93.20;;;;;;4972562;28;20023;-94
2021/01/19 00:57:46;;;;;;;16.10;3.38;;;5.90;93.00;;;;;;4983669;28;20035;-94
2021/01/19 01:00:13;;;;;;;13.25;4.35;;;5.90;93.00;;;;;;4978745;28;20030;-93
2021/01/19 01:02:39;;;;;;;10.88;3.38;;;5.90;92.90;;;;;;4973978;28;20033;-95
2021/01/19 01:05:06;;;;;;;9.45;2.65;;;5.90;92.90;;;;;;4975948;28;20030;-94
2021/01/19 01:07:33;;;;;;;11.10;2.42;;;5.90;92.80;;;;;;4976164;28;20027;-94
2021/01/19 01:09:59;;;;;;;7.97;2.45;;;5.90;92.80;;;;;;4974512;28;20098;-94
2021/01/19 01:12:24;;;;;;;11.10;2.85;;;5.90;92.70;;;;;;4982685;28;20126;-94
2021/01/19 01:14:50;;;;;;;12.38;3.10;;;5.90;92.70;;;;;;4974780;28;20027;-95
2021/01/19 01:17:15;;;;;;;19.05;2.72;;;5.90;92.60;;;;;;4974155;28;20395;-94
2021/01/19 01:19:41;;;;;;;12.27;3.38;;;5.90;92.60;;;;;;4982666;28;20034;-94
2021/01/19 01:22:06;;;;;;;18.17;2.25;;;5.90;92.60;;;;;;4975199;28;20029;-94
2021/01/19 01:24:32;;;;;;;13.98;2.78;;;5.90;92.40;;;;;;4976167;28;20027;-95
2021/01/19 01:26:57;;;;;;;8.05;1.95;;;5.90;92.40;;;;;;4975417;28;20023;-95
2021/01/19 01:29:23;;;;;;;11.60;2.05;;;5.90;92.30;;;;;;4974767;28;20038;-94
2021/01/19 01:31:48;;;;;;;11.98;2.38;;;5.90;92.30;;;;;;4974949;28;20078;-94
2021/01/19 01:34:14;;;;;;;8.40;1.60;;;5.80;92.20;;;;;;4975514;28;20027;-95
2021/01/19 01:36:40;;;;;;;14.20;2.22;;;5.90;92.20;;;;;;4975514;28;20107;-94
2021/01/19 01:39:06;;;;;;;8.20;1.48;;;5.80;92.00;;;;;;4975155;28;20027;-94
2021/01/19 01:41:32;;;;;;;15.50;2.47;;;5.80;92.00;;;;;;4974926;28;20023;-95
2021/01/19 01:43:57;;;;;;;10.73;1.55;;;5.80;91.90;;;;;;4973153;28;20122;-94
2021/01/19 01:46:23;;;;;;;11.40;1.80;;;5.80;91.80;;;;;;4972931;28;20555;-94
2021/01/19 01:48:49;;;;;;;11.43;1.80;;;5.80;91.60;;;;;;4974476;28;20118;-94
2021/01/19 01:51:15;;;;;;;8.73;1.70;;;5.80;91.60;;;;;;4972699;28;20129;-94
2021/01/19 01:53:41;;;;;;;11.63;1.73;;;5.80;91.60;;;;;;4971859;28;20404;-94
2021/01/19 01:56:08;;;;;;;12.38;1.75;;;5.80;91.60;;;;;;4990386;28;20030;-94
2021/01/19 01:58:34;;;;;;;10.82;1.40;;;5.70;91.50;;;;;;4972108;28;20591;-95
2021/01/19 02:00:59;;;;;;;8.10;1.45;;;5.70;91.50;;;;;;4975042;28;20069;-95
2021/01/19 02:03:25;;;;;;;6.68;1.15;;;5.70;91.30;;;;;;4984946;28;20479;-95
2021/01/19 02:05:51;;;;;;;7.97;1.65;;;5.70;91.30;;;;;;4974999;28;20023;-95
2021/01/19 02:08:41;;;;;;;8.30;1.13;;;5.60;91.30;;;;;;4974987;28;20033;-93
2021/01/19 02:11:19;;;;;;;6.40;1.10;;;5.60;91.40;;;;;;4987890;28;20031;-93
2021/01/19 02:14:01;;;;;;;6.50;1.00;;;5.70;91.30;;;;;;4979295;28;20027;-95
2021/01/19 02:16:37;;;;;;;10.82;1.45;;;5.70;91.30;;;;;;4974578;28;20038;-93
2021/01/19 02:19:40;;;;;;;10.35;1.30;;;5.60;91.20;;;;;;4975498;28;20117;-93
2021/01/19 02:22:27;;;;;;;10.07;1.52;;;5.70;91.10;;;;;;4967829;28;20031;-96
2021/01/19 02:25:10;;;;;;;8.60;1.08;;;5.70;91.10;;;;;;4984357;28;20086;-93
2021/01/19 02:27:59;;;;;;;7.38;0.95;;;5.60;91.10;;;;;;4973017;28;20027;-96
2021/01/19 02:30:27;;;;;;;7.43;1.40;;;5.60;91.00;;;;;;4973931;28;20105;-94
2021/01/19 02:33:07;;;;;;;5.22;1.10;;;5.70;91.00;;;;;;4972680;28;20041;-93
2021/01/19 02:36:10;;;;;;;11.52;1.83;;;5.70;90.80;;;;;;4968612;28;20019;-95
2021/01/19 02:38:43;;;;;;;4.93;0.80;;;5.70;90.70;;;;;;4956348;29;20035;-95
2021/01/19 02:41:11;;;;;;;8.45;1.00;;;5.70;90.70;;;;;;4973443;28;20385;-96
2021/01/19 02:43:40;;;;;;;6.25;0.63;;;5.70;90.70;;;;;;4966141;28;20090;-94
2021/01/19 02:46:06;;;;;;;9.30;1.40;;;5.70;90.70;;;;;;4958449;28;20029;-94
2021/01/19 02:48:32;;;;;;;11.40;1.23;;;5.70;90.60;;;;;;4973361;28;20030;-95
2021/01/19 02:50:58;;;;;;;6.70;1.15;;;5.70;90.60;;;;;;4973967;28;20435;-96
2021/01/19 02:53:24;;;;;;;7.50;1.10;;;5.60;90.60;;;;;;4990553;28;20058;-94
2021/01/19 02:55:51;;;;;;;12.38;1.67;;;5.60;90.60;;;;;;4972967;28;20059;-95
2021/01/19 02:58:25;;;;;;;8.63;2.10;;;5.60;90.50;;;;;;4975741;28;20105;-95
2021/01/19 03:01:05;;;;;;;12.85;1.65;;;5.60;90.60;;;;;;4980947;28;20115;-95
2021/01/19 03:03:36;;;;;;;10.38;2.03;;;5.60;90.60;;;;;;4983429;28;20081;-94
2021/01/19 03:06:30;;;;;;;9.38;1.35;;;5.60;90.60;;;;;;4963697;28;20555;-95
2021/01/19 03:08:58;;;;;;;12.43;1.85;;;5.60;90.60;;;;;;4957896;28;20047;-94
2021/01/19 03:11:25;;;;;;;10.30;1.70;;;5.60;90.60;;;;;;4973887;28;20035;-95
2021/01/19 03:13:51;;;;;;;8.90;2.28;;;5.60;90.60;;;;;;4974975;28;20023;-95
2021/01/19 03:16:19;;;;;;;9.05;2.33;;;5.60;90.70;;;;;;4962858;28;20483;-95
2021/01/19 03:18:46;;;;;;;20.55;4.05;;;5.60;90.60;;;;;;4975017;28;20038;-95
2021/01/19 03:21:12;;;;;;;12.63;2.15;;;5.60;90.70;;;;;;4968415;28;20031;-95
2021/01/19 03:23:38;;;;;;;13.80;3.20;;;5.60;90.70;;;;;;4968458;28;20066;-96
2021/01/19 03:26:04;;;;;;;13.57;2.45;;;5.60;90.80;;;;;;4972782;28;20058;-95
2021/01/19 03:28:30;;;;;;;18.63;3.95;;;5.50;90.80;;;;;;4967569;28;20066;-95
2021/01/19 03:30:56;;;;;;;12.00;3.00;;;5.50;91.00;;;;;;4982161;28;20090;-95
2021/01/19 03:33:23;;;;;;;14.80;3.17;;;5.50;91.10;;;;;;4982240;28;20059;-96
2021/01/19 03:35:49;;;;;;;9.57;2.80;;;5.40;91.20;;;;;;4993675;28;20061;-94
2021/01/19 03:38:14;;;;;;;9.73;2.60;;;5.40;91.40;;;;;;4983943;28;20031;-95
2021/01/19 03:40:40;;;;;;;15.00;3.25;;;5.40;91.50;;;;;;4981392;28;20395;-95
2021/01/19 03:43:06;;;;;;;18.25;3.83;;;5.40;91.60;;;;;;4983253;28;20156;-94
2021/01/19 03:45:32;;;;;;;15.48;4.43;;;5.30;91.80;;;;;;4998772;28;20031;-94
2021/01/19 03:47:58;;;;;;;13.15;3.65;;;5.30;91.90;;;;;;4983998;28;20107;-95
2021/01/19 03:50:24;;;;;;;11.13;3.55;;;5.30;92.10;;;;;;4976246;28;20031;-94
2021/01/19 03:52:50;;;;;;;12.30;3.47;;;5.30;92.30;;;;;;4971952;28;20066;-95
2021/01/19 03:55:16;;;;;;;12.85;3.92;;;5.30;92.30;;;;;;4992484;28;20484;-95
2021/01/19 03:57:41;;;;;;;18.70;3.85;;;5.20;92.50;;;;;;4977432;28;20065;-94
2021/01/19 04:00:11;;;;;;;11.40;4.65;;;5.20;92.60;;;;;;4986354;28;20031;-94
2021/01/19 04:02:37;;;;;;;12.43;3.85;;;5.20;92.70;;;;;;4975473;28;20090;-94
2021/01/19 04:05:04;;;;;;;15.70;4.70;;;5.20;92.70;;;;;;4976935;28;20115;-96
2021/01/19 04:07:29;;;;;;;13.95;4.32;;;5.20;92.90;;;;;;4979348;28;20033;-94
2021/01/19 04:09:55;;;;;;;10.95;4.25;;;5.20;93.00;;;;;;4963078;28;20403;-93
2021/01/19 04:12:21;;;;;;;12.32;5.00;;;5.20;93.20;;;;;;4978068;28;20129;-94
2021/01/19 04:14:46;;;;;;;11.02;4.22;;;5.10;93.20;;;;;;4974288;28;20027;-94
2021/01/19 04:17:12;;;;;;;11.93;4.50;;;5.10;93.30;;;;;;4979377;28;20073;-94
2021/01/19 04:19:37;;;;;;;11.35;5.30;;;5.10;93.40;;;;;;4979464;28;20062;-93
2021/01/19 04:22:03;;;;;;;12.70;4.88;;;5.10;93.50;;;;;;4977672;28;20486;-94
2021/01/19 04:24:28;;;;;;;16.77;4.40;;;5.10;93.60;;;;;;4979581;28;20491;-94
2021/01/19 04:26:54;;;;;;;9.32;3.72;;;5.10;93.80;;;;;;4979697;28;20498;-94
2021/01/19 04:29:19;;;;;;;10.18;4.90;;;5.10;93.90;;;;;;4979936;28;20031;-94
2021/01/19 04:31:45;;;;;;;11.55;4.57;;;5.10;93.90;;;;;;4978011;28;20089;-95
2021/01/19 04:34:11;;;;;;;9.30;4.25;;;5.10;93.90;;;;;;4982035;28;20030;-93
2021/01/19 04:36:36;;;;;;;13.00;4.55;;;5.10;94.00;;;;;;4972810;28;20407;-93
2021/01/19 04:39:03;;;;;;;10.52;5.20;;;5.10;94.10;;;;;;4975662;28;20019;-96
2021/01/19 04:41:28;;;;;;;9.85;4.80;;;5.10;94.10;;;;;;4991760;28;20027;-94
2021/01/19 04:43:55;;;;;;;13.25;4.68;;;5.10;94.10;;;;;;4976875;28;20035;-94
2021/01/19 04:46:22;;;;;;;10.25;4.20;;;5.10;94.10;;;;;;4980356;28;20027;-95
2021/01/19 04:48:48;;;;;;;9.90;4.97;;;5.20;94.20;;;;;;4978566;28;20028;-95
2021/01/19 04:51:21;;;;;;;13.38;4.22;;;5.20;94.20;;;;;;4978752;28;20058;-93
2021/01/19 04:54:02;;;;;;;9.45;4.22;;;5.20;94.30;;;;;;4974394;28;20026;-94
2021/01/19 04:56:29;;;;;;;8.27;3.75;;;5.20;94.30;;;;;;4983660;28;20059;-94
2021/01/19 04:58:55;;;;;;;9.85;5.45;;;5.20;94.30;;;;;;4978072;28;20438;-93
2021/01/19 05:01:39;;;;;;;5.93;3.50;;;5.20;94.40;;;;;;4977895;28;20019;-95
2021/01/19 05:04:32;;;;;;;7.15;4.03;;;5.20;94.50;;;;;;4974364;28;20035;-95
2021/01/19 05:07:29;;;;;;;10.15;3.95;;;5.20;94.50;;;;;;4974382;28;20023;-95
2021/01/19 05:10:15;;;;;;;8.73;4.05;;;5.20;94.60;;;;;;4995137;28;20034;-95
2021/01/19 05:12:42;;;;;;;10.02;4.60;;;5.20;94.70;;;;;;4979247;28;20043;-96
2021/01/19 05:15:12;;;;;;;9.15;3.95;;;5.20;94.70;;;;;;4972648;28;20054;-95
2021/01/19 05:17:39;;;;;;;9.77;4.65;;;5.20;94.80;;;;;;4989092;28;20031;-95
2021/01/19 05:20:07;;;;;;;8.75;3.65;;;5.20;94.80;;;;;;4979701;28;20031;-95
2021/01/19 05:22:33;;;;;;;6.82;3.70;;;5.30;94.90;;;;;;4970876;28;20026;-94
2021/01/19 05:24:59;;;;;;;8.73;3.33;;;5.30;94.90;;;;;;4977187;28;20024;-95
2021/01/19 05:27:25;;;;;;;6.55;3.03;;;5.30;94.90;;;;;;4976506;28;20038;-95
2021/01/19 05:30:03;;;;;;;8.70;3.65;;;5.30;95.00;;;;;;4979459;28;20047;-96
2021/01/19 05:32:43;;;;;;;5.43;2.88;;;5.30;95.00;;;;;;4976963;28;20043;-95
2021/01/19 05:35:26;;;;;;;8.68;3.30;;;5.40;95.00;;;;;;4991506;28;20026;-95
2021/01/19 05:38:00;;;;;;;6.55;3.20;;;5.40;95.00;;;;;;4975249;28;20037;-94
2021/01/19 05:40:27;;;;;;;7.20;2.78;;;5.40;95.00;;;;;;4985857;28;20031;-96
2021/01/19 05:42:53;;;;;;;6.85;2.92;;;5.40;95.00;;;;;;4975690;28;20037;-96
2021/01/19 05:45:20;;;;;;;9.10;3.10;;;5.40;95.10;;;;;;4982990;28;20040;-96
2021/01/19 05:47:46;;;;;;;4.05;2.60;;;5.40;95.10;;;;;;4977643;28;20042;-96
2021/01/19 05:50:13;;;;;;;4.82;2.90;;;5.40;95.10;;;;;;4993876;28;20043;-94
2021/01/19 05:52:39;;;;;;;5.13;2.38;;;5.50;95.10;;;;;;4982268;28;20034;-95
2021/01/19 05:55:05;;;;;;;5.47;2.50;;;5.50;95.20;;;;;;5001886;28;20030;-96
2021/01/19 05:57:31;;;;;;;6.68;2.45;;;5.50;95.20;;;;;;4980878;28;20060;-96
2021/01/19 05:59:59;;;;;;;6.80;2.70;;;5.50;95.20;;;;;;4961486;28;20024;-96
2021/01/19 06:02:37;;;;;;;4.35;2.15;;;5.50;95.20;;;;;;4975050;28;20049;-95
2021/01/19 06:05:16;;;;;;;5.07;1.77;;;5.50;95.20;;;;;;4964288;28;20515;-96
2021/01/19 06:07:44;;;;;;;3.38;2.22;;;5.60;95.30;;;;;;4976491;28;20041;-95
2021/01/19 06:10:12;;;;;;;7.85;2.85;;;5.60;95.30;;;;;;4975185;28;20030;-95
2021/01/19 06:12:38;;;;;;;5.28;2.17;;;5.60;95.30;;;;;;4975343;28;20439;-96
2021/01/19 06:15:05;;;;;;;7.95;2.55;;;5.60;95.30;;;;;;4976915;28;20023;-95
2021/01/19 06:17:31;;;;;;;7.20;2.17;;;5.60;95.30;;;;;;4976274;28;20027;-94
2021/01/19 06:19:58;;;;;;;4.78;2.15;;;5.70;95.40;;;;;;4975199;28;20538;-95
2021/01/19 06:22:25;;;;;;;6.85;2.17;;;5.60;95.40;;;;;;4971676;28;20077;-95
2021/01/19 06:24:56;;;;;;;4.43;2.15;;;5.70;95.40;;;;;;4974938;28;20062;-95
2021/01/19 06:27:24;;;;;;;4.07;2.28;;;5.70;95.40;;;;;;4992457;28;20077;-95
2021/01/19 06:29:59;;;;;;;5.35;2.17;;;5.70;95.40;;;;;;4973970;28;20414;-93
2021/01/19 06:32:31;;;;;;;6.70;2.20;;;5.70;95.40;;;;;;4977567;28;20042;-92
2021/01/19 06:35:19;;;;;;;4.80;2.08;;;5.80;95.40;;;;;;4969972;28;20062;-95
2021/01/19 06:37:47;;;;;;;4.30;2.20;;;5.80;95.40;;;;;;4972772;28;20134;-94
2021/01/19 06:40:15;;;;;;;5.80;2.40;;;5.80;95.50;;;;;;4968158;28;20090;-94
2021/01/19 06:42:41;;;;;;;4.50;2.08;;;5.80;95.50;;;;;;4975655;28;20066;-96
2021/01/19 06:45:10;;;;;;;4.20;2.20;;;5.80;95.50;;;;;;4974548;28;20038;-93
2021/01/19 06:47:52;;;;;;;2.90;2.03;;;5.80;95.50;;;;;;4972702;28;20042;-95
2021/01/19 06:50:23;;;;;;;3.70;2.05;;;5.80;95.50;;;;;;4961035;28;20023;-94
2021/01/19 06:53:01;;;;;;;5.43;2.38;;;5.80;95.50;;;;;;4973247;28;20089;-93
2021/01/19 06:55:43;;;;;;;7.15;1.98;;;5.90;95.60;;;;;;4973391;28;20121;-94
2021/01/19 06:58:36;;;;;;;4.07;1.65;;;5.90;95.60;;;;;;4969864;28;20109;-92
2021/01/19 07:01:10;;;;;;;8.00;2.15;;;5.90;95.60;;;;;;4972386;28;20066;-92
2021/01/19 07:03:37;;;;;;;3.58;1.80;;;6.00;95.60;;;;;;4974122;28;20081;-94
2021/01/19 07:06:05;;;;;;;3.50;1.50;;;5.90;95.60;;;;;;4973935;28;20102;-92
2021/01/19 07:09:10;;;;;;;3.13;1.92;;;5.90;95.60;;;;;;4973688;28;20019;-93
2021/01/19 07:12:04;;;;;;;4.28;1.77;;;6.00;95.60;;;;;;4989962;28;20086;-93
2021/01/19 07:14:40;;;;;;;5.60;2.08;;;6.10;95.60;;;;;;4974089;28;20026;-92
2021/01/19 07:17:08;;;;;;;5.35;1.38;;;6.10;95.60;;;;;;4974348;28;20388;-92
2021/01/19 07:19:50;;;;;;;4.15;1.60;;;6.10;95.60;;;;;;4973161;28;20050;-92
2021/01/19 07:22:40;;;;;;;3.92;1.40;;;6.10;95.50;;;;;;4973709;28;20034;-91
2021/01/19 07:25:05;;;;;;;3.10;1.20;;;6.10;95.50;;;;;;4973541;28;20384;-92
2021/01/19 07:27:32;;;;;;;7.38;1.55;;;6.10;95.50;;;;;;4968409;28;20037;-92
2021/01/19 07:29:57;;;;;;;3.83;1.83;;;6.10;95.50;;;;;;4977005;28;20128;-91
2021/01/19 07:32:30;;;;;;;4.97;1.63;;;6.20;95.60;;;;;;4972203;28;20500;-92
2021/01/19 07:34:59;;;;;;;4.13;1.40;;;6.20;95.60;;;;;;4961754;28;20471;-92
2021/01/19 07:37:35;;;;;;;4.13;0.80;;;6.20;95.50;;;;;;4974036;28;20109;-91
2021/01/19 07:40:02;;;;;;;4.30;1.27;;;6.20;95.50;;;;;;4973315;28;20039;-92
2021/01/19 07:42:32;;;;;;;2.17;1.00;;;6.30;95.60;;;;;;4989914;28;20034;-92
2021/01/19 07:45:04;;;;;;;4.05;1.25;;;6.30;95.60;;;;;;4955254;28;20027;-94
2021/01/19 07:47:41;;;;;;;5.40;1.10;;;6.30;95.50;;;;;;4973833;28;20035;-93
2021/01/19 07:50:15;;;;;;;4.35;1.30;;;6.30;95.50;;;;;;4973378;28;20051;-91
2021/01/19 07:52:43;;;;;;;3.47;1.10;;;6.40;95.50;;;;;;4973882;28;20038;-92
2021/01/19 07:55:21;;;;;;;4.28;1.05;;;6.40;95.50;;;;;;4973932;28;20022;-92
2021/01/19 07:57:51;;;;;;;4.55;1.00;;;6.40;95.50;;;;;;4973670;28;20027;-92
2021/01/19 08:00:22;;;;;;;2.65;0.90;;;6.40;95.50;;;;;;4973827;28;20031;-93
2021/01/19 08:02:48;;;;;;;4.07;1.00;;;6.40;95.50;;;;;;4989292;28;20026;-93
2021/01/19 08:05:25;;;;;;;2.58;0.95;;;6.50;95.50;;;;;;4973757;28;20498;-92
2021/01/19 08:07:51;;;;;;;1.98;1.25;;;6.50;95.50;;;;;;4973810;28;20027;-93
2021/01/19 08:10:21;;;;;;;2.15;1.13;;;6.50;95.50;;;;;;4973483;28;20025;-93
2021/01/19 08:12:48;;;;;;;3.15;0.98;;;6.50;95.50;;;;;;4989811;28;20587;-92
2021/01/19 08:15:28;;;;;;;5.40;1.00;;;6.50;95.50;;;;;;4973874;28;20030;-91
2021/01/19 08:17:55;;;;;;;2.40;0.80;;;6.60;95.40;;;;;;4973846;28;20575;-93
2021/01/19 08:20:35;;;;;;;1.88;0.90;;;6.60;95.40;;;;;;4969469;28;20015;-92
2021/01/19 08:23:16;;;;;;;2.45;0.70;;;6.60;95.30;;;;;;4973283;28;20052;-90
2021/01/19 08:25:41;;;;;;;2.50;1.00;;;6.70;95.40;;;;;;4993194;28;20027;-91
2021/01/19 08:28:08;;;;;;;6.72;1.27;;;6.70;95.30;;;;;;4976886;28;20479;-93
2021/01/19 08:30:35;;;;;;;3.03;0.90;;;6.60;95.40;;;;;;4976230;28;20070;-91
2021/01/19 08:33:01;;;;;;;2.40;1.20;;;6.70;95.40;;;;;;4993001;28;20491;-92
2021/01/19 08:35:28;;;;;;;2.53;1.10;;;6.70;95.40;;;;;;4976834;28;20114;-93
2021/01/19 08:37:57;;;;;;;4.03;1.15;;;6.70;95.50;;;;;;4976621;28;20031;-92
2021/01/19 08:40:27;;;;;;;12.02;3.20;;;6.70;95.50;;;;;;4957591;28;20055;-94
2021/01/19 08:42:54;;;;;;;2.55;1.05;;;6.70;95.50;;;;;;4976745;28;20057;-92
2021/01/19 08:45:31;;;;;;;6.07;1.23;;;6.80;95.50;;;;;;4976900;28;20034;-92
2021/01/19 08:48:01;;;;;;;5.25;1.63;;;6.80;95.60;;;;;;4977130;28;20027;-92
2021/01/19 08:50:29;;;;;;;3.88;1.20;;;6.90;95.70;;;;;;4977329;28;20038;-92
2021/01/19 08:52:54;;;;;;;2.83;0.90;;;6.90;95.60;;;;;;4976035;28;20042;-94
2021/01/19 08:55:22;;;;;;;1.83;0.75;;;6.90;95.60;;;;;;4992915;28;20484;-94
2021/01/19 08:57:59;;;;;;;4.95;2.38;;;6.90;95.70;;;;;;4976185;28;20113;-93
2021/01/19 09:00:36;;;;;;;2.42;0.90;;;6.90;95.70;;;;;;4970142;28;20027;-94
2021/01/19 09:03:18;;;;;;;2.22;1.10;;;6.90;95.70;;;;;;4974314;28;20522;-95
2021/01/19 09:05:43;;;;;;;2.08;0.80;;;7.00;95.70;;;;;;4976825;28;20618;-93
2021/01/19 09:08:18;;;;;;;3.70;1.23;;;7.00;95.60;;;;;;4976543;28;20050;-94
2021/01/19 09:10:44;;;;;;;2.58;1.50;;;7.00;95.60;;;;;;4976588;28;20039;-94
2021/01/19 09:13:11;;;;;;;2.85;0.80;;;7.00;95.60;;;;;;4969842;28;20035;-94
2021/01/19 09:15:44;;;;;;;4.57;1.10;;;7.00;95.70;;;;;;4973240;28;20031;-95
2021/01/19 09:18:11;;;;;;;3.22;0.73;;;7.10;95.60;;;;;;4975941;28;20030;-93
2021/01/19 09:20:37;;;;;;;4.47;1.13;;;7.10;95.70;;;;;;4976527;28;20086;-94
2021/01/19 09:23:15;;;;;;;2.00;0.90;;;7.10;95.70;;;;;;4975837;28;20027;-94
2021/01/19 09:25:41;;;;;;;2.55;1.10;;;7.10;95.70;;;;;;4973095;28;20027;-93
2021/01/19 09:28:07;;;;;;;2.05;1.00;;;7.10;95.80;;;;;;4973859;28;20069;-94
2021/01/19 09:30:35;;;;;;;2.83;1.35;;;7.20;95.80;;;;;;4973596;28;20039;-94
2021/01/19 09:33:05;;;;;;;6.35;1.50;;;7.20;95.80;;;;;;4972255;28;20499;-94
2021/01/19 09:35:32;;;;;;;4.00;1.75;;;7.20;95.80;;;;;;4968376;28;20030;-94
2021/01/19 09:37:57;;;;;;;2.53;1.25;;;7.30;95.80;;;;;;4972094;28;20427;-94
2021/01/19 09:40:34;;;;;;;3.33;2.13;;;7.30;95.80;;;;;;4975506;28;20030;-94
2021/01/19 09:43:12;;;;;;;3.28;1.67;;;7.30;95.90;;;;;;4968872;28;20088;-93
2021/01/19 09:45:38;;;;;;;2.55;1.60;;;7.30;95.90;;;;;;4975581;28;20025;-94
2021/01/19 09:48:06;;;;;;;4.55;1.65;;;7.40;95.90;;;;;;4976802;28;20034;-94
2021/01/19 09:50:31;;;;;;;3.35;1.40;;;7.40;96.20;;;;;;4976346;28;20037;-94
2021/01/19 09:52:57;;;;;;;2.47;1.48;;;7.40;95.90;;;;;;4975786;28;20043;-94
2021/01/19 09:55:30;;;;;;;4.97;1.48;;;7.40;96.00;;;;;;4977135;28;20097;-94
2021/01/19 09:57:59;;;;;;;4.63;1.30;;;7.50;96.10;;;;;;4977652;28;20811;-94
2021/01/19 10:00:43;;;;;;;2.90;1.38;;;7.50;96.10;;;;;;4975055;28;20102;-95
2021/01/19 10:03:13;;;;;;;3.03;1.20;;;7.50;96.10;;;;;;4973078;28;20046;-94
2021/01/19 10:05:38;;;;;;;4.35;1.30;;;7.50;96.20;;;;;;4974271;28;20395;-95
2021/01/19 10:08:04;;;;;;;3.63;1.90;;;7.60;96.20;;;;;;4965139;28;20035;-93
2021/01/19 10:10:34;;;;;;;3.75;1.63;;;7.60;96.20;;;;;;4971832;28;20031;-93
2021/01/19 10:13:04;;;;;;;5.55;1.58;;;7.70;96.20;;;;;;4974882;28;20035;-93
2021/01/19 10:15:30;;;;;;;7.95;1.40;;;7.70;96.30;;;;;;4969503;28;20030;-94
2021/01/19 10:17:57;;;;;;;4.60;1.73;;;7.70;96.30;;;;;;4975178;28;20479;-96
2021/01/19 10:20:29;;;;;;;2.80;1.60;;;7.70;96.30;;;;;;4975275;28;20069;-94
2021/01/19 10:22:57;;;;;;;3.17;1.48;;;7.80;96.20;;;;;;4976401;28;20035;-94
2021/01/19 10:25:34;;;;;;;4.28;1.40;;;7.80;96.30;;;;;;4975580;28;20038;-96
2021/01/19 10:28:02;;;;;;;2.95;2.30;;;7.90;96.30;;;;;;4976226;28;20491;-94
2021/01/19 10:30:36;;;;;;;2.25;2.05;;;7.90;96.40;;;;;;4969481;28;20504;-90
2021/01/19 10:33:02;;;;;;;4.80;2.10;;;8.00;96.40;;;;;;4985870;28;20035;-92
2021/01/19 10:35:33;;;;;;;3.25;2.65;;;8.00;96.50;;;;;;4984615;28;20081;-94
2021/01/19 10:38:09;;;;;;;4.25;2.72;;;8.00;96.50;;;;;;4971700;28;20126;-94
2021/01/19 10:40:36;;;;;;;3.15;2.85;;;8.10;96.50;;;;;;4971058;28;20054;-94
2021/01/19 10:43:08;;;;;;;6.07;4.35;;;8.10;96.50;;;;;;4965732;28;20028;-93
2021/01/19 10:45:34;;;;;;;4.40;3.80;;;8.20;96.60;;;;;;4968830;28;20484;-93
2021/01/19 10:48:01;;;;;;;5.05;4.15;;;8.20;96.60;;;;;;4973803;28;20121;-95
2021/01/19 10:50:29;;;;;;;4.45;4.05;;;8.30;96.60;;;;;;4973601;28;20113;-95
2021/01/19 10:53:00;;;;;;;5.47;4.28;;;8.30;96.70;;;;;;4973049;28;20039;-96
2021/01/19 10:55:26;;;;;;;7.90;4.10;;;8.40;97.10;;;;;;4972196;28;20029;-95
2021/01/19 10:58:00;;;;;;;4.20;3.80;;;8.50;96.80;;;;;;4976443;28;20392;-95
2021/01/19 11:00:27;;;;;;;4.10;3.55;;;8.50;96.80;;;;;;4979672;28;20031;-94
2021/01/19 11:02:53;;;;;;;4.00;3.05;;;8.60;96.80;;;;;;4977019;28;20056;-94
2021/01/19 11:05:20;;;;;;;4.93;2.58;;;8.70;96.90;;;;;;4969377;28;20031;-96
2021/01/19 11:07:46;;;;;;;4.80;2.33;;;8.70;96.80;;;;;;4972431;28;20031;-95
2021/01/19 11:10:13;;;;;;;4.63;2.33;;;8.70;96.90;;;;;;4974289;28;20027;-95
2021/01/19 11:12:40;;;;;;;2.72;2.28;;;8.80;96.90;;;;;;4972135;28;20110;-94
2021/01/19 11:15:07;;;;;;;6.97;2.97;;;8.80;97.10;;;;;;4974648;28;20053;-95
2021/01/19 11:17:32;;;;;;;3.58;2.47;;;8.90;97.10;;;;;;4991555;28;20035;-96
2021/01/19 11:19:58;;;;;;;4.43;2.58;;;8.90;97.10;;;;;;4993491;28;20030;-96
2021/01/19 11:22:23;;;;;;;3.40;2.55;;;9.00;97.20;;;;;;4975336;28;20368;-95
2021/01/19 11:24:49;;;;;;;5.00;2.58;;;9.00;97.20;;;;;;4977156;28;20031;-96
2021/01/19 11:27:15;;;;;;;3.00;2.30;;;9.00;97.20;;;;;;4978740;28;20491;-94
2021/01/19 11:29:41;;;;;;;6.03;3.05;;;9.10;97.10;;;;;;4959079;28;20050;-94
2021/01/19 11:32:06;;;;;;;6.25;2.90;;;9.10;97.00;;;;;;4972867;28;20031;-93
2021/01/19 11:34:32;;;;;;;4.40;3.55;;;9.10;97.40;;;;;;4998255;28;20038;-95
2021/01/19 11:36:57;;;;;;;4.53;3.63;;;9.10;97.20;;;;;;4973775;28;20490;-95
2021/01/19 11:39:23;;;;;;;7.20;4.25;;;9.10;97.20;;;;;;4974223;28;20027;-95
2021/01/19 11:41:48;;;;;;;7.05;4.30;;;9.10;97.20;;;;;;4973305;28;20031;-95
2021/01/19 11:44:15;;;;;;;5.18;4.65;;;9.10;97.20;;;;;;4993159;28;20447;-95
2021/01/19 11:46:41;;;;;;;4.72;4.15;;;9.10;97.30;;;;;;4973981;28;20098;-94
2021/01/19 11:49:07;;;;;;;6.07;5.47;;;9.10;97.30;;;;;;4975058;28;20105;-93
2021/01/19 11:51:38;;;;;;;5.68;5.07;;;9.10;97.30;;;;;;4975189;28;20027;-94
2021/01/19 11:54:05;;;;;;;7.30;5.45;;;9.20;97.40;;;;;;4974723;28;20026;-93
2021/01/19 11:56:33;;;;;;;8.10;6.15;;;9.20;97.40;;;;;;4976527;28;20027;-96
2021/01/19 11:59:01;;;;;;;7.72;6.00;;;9.20;97.30;;;;;;4975937;28;20059;-95
2021/01/19 12:01:26;;;;;;;8.52;6.30;;;9.20;97.30;;;;;;4985262;28;20023;-96
2021/01/19 12:03:52;;;;;;;8.80;6.00;;;9.20;97.30;;;;;;4983229;28;20023;-96
2021/01/19 12:06:18;;;;;;;7.93;6.80;;;9.20;97.30;;;;;;4988568;28;20037;-96
2021/01/19 12:08:46;;;;;;;7.78;6.60;;;9.20;97.30;;;;;;4989381;28;20026;-94
2021/01/19 12:11:13;;;;;;;8.32;7.40;;;9.20;97.30;;;;;;4981537;28;20153;-94
2021/01/19 12:13:41;;;;;;;8.55;7.30;;;9.20;97.40;;;;;;4968212;28;20066;-96
2021/01/19 12:16:08;;;;;;;9.27;8.00;;;9.20;97.50;;;;;;4980103;28;20491;-96
2021/01/19 12:18:35;;;;;;;9.75;7.05;;;9.20;97.50;;;;;;4999623;28;20058;-95
2021/01/19 12:21:01;;;;;;;10.75;9.27;;;9.20;97.50;;;;;;4983864;28;20030;-94
2021/01/19 12:23:27;;;;;;;12.75;9.25;;;9.30;97.50;;;;;;4983257;28;20027;-96
2021/01/19 12:25:59;;;;;;;10.70;9.15;;;9.30;97.50;;;;;;4986039;28;20091;-95
2021/01/19 12:28:25;;;;;;;12.35;9.23;;;9.20;97.40;;;;;;4984951;28;20050;-95
2021/01/19 12:30:53;;;;;;;10.10;8.60;;;9.30;97.40;;;;;;4977589;28;20043;-96
2021/01/19 12:33:20;;;;;;;12.27;9.63;;;9.20;97.40;;;;;;4984709;28;20038;-94
2021/01/19 12:35:47;;;;;;;11.88;10.40;;;9.20;97.50;;;;;;4981751;28;20118;-96
2021/01/19 12:38:14;;;;;;;13.75;10.02;;;9.20;97.40;;;;;;4983711;28;20047;-96
2021/01/19 12:40:39;;;;;;;10.90;9.63;;;9.20;97.50;;;;;;4983785;28;20049;-95
2021/01/19 12:43:05;;;;;;;12.18;9.80;;;9.20;97.60;;;;;;4981083;28;20688;-96
2021/01/19 12:45:30;;;;;;;13.80;10.95;;;9.20;97.60;;;;;;4982454;28;20399;-96
2021/01/19 12:47:56;;;;;;;12.75;9.82;;;9.20;97.60;;;;;;4983233;28;20030;-95
2021/01/19 12:50:22;;;;;;;12.95;9.68;;;9.20;97.70;;;;;;4967896;28;20086;-96
2021/01/19 12:52:48;;;;;;;13.35;10.10;;;9.20;97.70;;;;;;4980063;28;20045;-96
2021/01/19 12:55:15;;;;;;;13.50;9.68;;;9.30;97.70;;;;;;4982649;28;20023;-96
2021/01/19 12:57:40;;;;;;;11.60;8.70;;;9.40;97.80;;;;;;4984120;28;20102;-94
2021/01/19 13:00:07;;;;;;;12.90;8.30;;;9.40;97.80;;;;;;4982315;28;20058;-95
2021/01/19 13:02:34;;;;;;;15.82;9.88;;;9.40;97.80;;;;;;4979459;28;20046;-95
2021/01/19 13:05:02;;;;;;;13.15;8.27;;;9.40;97.80;;;;;;4999094;28;20054;-96